Sparwood, Canada
Current Conditions -  °F | °C
As of 7:00 AM on Tuesday 21 Oct 2014 (Local Time) from CYXC Reporting Station
Rain Showers Rain Showers  
Wind Chill: 46°   Ceiling: 8000
Heat Index: 46°   Visibility: 15mi
Dew Point: 43°   Wind: 0mph
Humidity: 87%   Direction: NA
Pressure: 29.76"   Gusts: NA
Location:  49.72°N, 114.89°W
Report Text: CYXC 211300Z 00000KT 15SM VCSH FEW055 BKN080 BKN140 08/06 A2976 RMK SC2AC3AC2 SLP078 DENSITY ALT 3200FT
Loading
Personal Weather Stations






























Interactive Weather Map New forecast layout! Learn more

10-Day Weather Forecast

Advertisements
Track Severe Weather on mobile